| Brighton | 18:20 | 18:50 | 19:20 | 19:50 | 20:20 | 20:50 | ||
| Pontefract | 13:48 | 14:18 | 14:48 | 15:18 | 15:48 | 16:18 | 16:48 | |
| Tramore | 17:25 | 18:00 | 18:30 | 19:00 | 19:30 | 20:00 | 20:30 | |
| Uttoxeter | 13:30 | 14:00 | 14:30 | 15:00 | 15:30 | 16:00 | 16:30 | |
| Wolverhampton | 17:10 | 17:40 | 18:10 | 18:40 | 19:10 | 19:40 | 20:10 | 20:40 |
![]() | Freddy Fearless (David & Nicola Barron, William Pyle) | 25/1 | LOSER | 55.00 | detail | 50.00 | 50.00 | 42.00 | 0.61 | 2226 | / 152414 | 3628.90 | 0.61 |
![]() | Hellion (Donald McCain, David Nolan) | 22/1 | LOSER | 340.00 | detail | 150.00 | 180.00 | 270.00 | 0.08 | 965 | / 152414 | 564.50 | 1.71 |
![]() | Khepri (K. R. Burke, Clifford Lee) | 16/1 | LOSER | 75.00 | detail | 50.00 | 55.00 | 70.00 | 0.23 | 2150 | / 152414 | 2177.34 | 0.99 |
![]() | Kinetic Impact (Charles Hills, Tom Marquand) | 4/1 | LOSER | 3.90 | detail | 3.35 | 3.45 | 3.75 | 1.45 | 40112 | / 152414 | 40643.67 | 0.99 |
![]() | Moon Zabeel (Charlie Johnston, Connor Beasley) | 25/1 | LOSER | 40.94 | detail | 42.00 | 48.00 | 36.00 | 0.71 | 1891 | / 152414 | 4233.72 | 0.45 |
![]() | Sixty Plus (James Owen, Joanna Mason) | 25/1 | LOSER | 110.17 | detail | 90.00 | 100.00 | 120.00 | 0.21 | 1677 | / 152414 | 1270.11 | 1.32 |
![]() | Steel Raven (Adrian Keatley, M. P. Sheehy) | 6/1 | WINNER | 12.60 | detail | 9.80 | 10.50 | 11.00 | 0.60 | 7745 | / 152414 | 13855.80 | 0.56 |
![]() | Talitha Rouge (David O'Meara, Daniel Tudhope) | 11/2 | LOSER | 6.28 | detail | 6.40 | 6.00 | 6.20 | 1.06 | 11709 | / 152414 | 24582.87 | 0.48 |
![]() | Tiernan (Iain Jardine, Paul Mulrennan) | 2/1 | LOSER | 2.30 | detail | 2.68 | 2.60 | 2.44 | 1.39 | 83748 | / 152414 | 62464.66 | 1.34 |
![]() | Twin And Tonic (Roger Fell, Oisin McSweeney) | 200/1 | LOSER | 1,000.00 | detail | 1000.00 | 1000.00 | 1000.00 | 0.20 | 191 | / 152414 | 152.41 | 1.25 |
| 1.05 | |||||||||||||
| Freddy Fearless : LOSER | ||||||||
| Back | Back | Back | Lay | Lay | Lay | |||
| 00:00 | Market:OPEN Horse:ACTIVE | forecast 25/1 | 11 £1.5 | 11.5 £2.72 | 12.5 £1.59 | 21 £6.82 | 23 £2.99 | 25 £2.5 |
| 13:48 | Market:OPEN Horse:ACTIVE | forecast 25/1 | 32 £10.48 | 34 £5.65 | 36 £28.27 | 38 £5.11 | 40 £8.34 | 42 £26.95 |
| 13:50 | Market:OPEN Horse:ACTIVE | forecast 25/1 | 32 £10.48 | 34 £9.27 | 36 £9.78 | 38 £6.79 | 40 £8.73 | 42 £26.95 |
| 13:55 | Market:OPEN Horse:ACTIVE | forecast 25/1 | 32 £10.06 | 34 £7.45 | 36 £18.48 | 40 £8.65 | 42 £26.95 | 44 £4 |
| 14:00 | Market:OPEN Horse:ACTIVE | forecast 25/1 | 34 £8.59 | 36 £18.24 | 38 £12.14 | 40 £8.63 | 42 £28.43 | 44 £4 |
| 14:05 | Market:OPEN Horse:ACTIVE | forecast 25/1 | 32 £8.25 | 34 £10.22 | 36 £16.49 | 38 £2.38 | 40 £14.25 | 42 £31.53 |
| 14:10 | Market:OPEN Horse:ACTIVE | forecast 25/1 | 42 £38.61 | 44 £17.94 | 46 £7.32 | 48 £4.17 | 50 £9.24 | 55 £15.98 |
| 14:13 | Market:OPEN Horse:ACTIVE | forecast 25/1 | 46 £13.18 | 48 £32.91 | 50 £14.2 | 55 £38.19 | 60 £19.25 | 65 £14.53 |
| 14:15 | Market:OPEN Horse:ACTIVE | forecast 25/1 | 46 £15.99 | 48 £34.22 | 50 £41.88 | 55 £45.16 | 60 £30.39 | 65 £17.21 |
| 14:18 | Market:OPEN Horse:ACTIVE | forecast 25/1 | 38 £38.6 | 40 £39.11 | 42 £23.4 | 44 £3.71 | 46 £21.07 | 48 £22.04 |
| 14:20 | Market:SUSPENDED Horse:ACTIVE | forecast 25/1 | 46 £124.11 | 48 £11.53 | 50 £9.69 | 60 £30.81 | 65 £24.35 | 70 £15.85 |
| 14:25 | Market:SUSPENDED Horse:ACTIVE | forecast 25/1 | 0 £0 | 0 £0 | 0 £0 | 0 £0 | 0 £0 | 0 £0 |
| Hellion : LOSER | ||||||||
| Back | Back | Back | Lay | Lay | Lay | |||
| 00:00 | Market:OPEN Horse:ACTIVE | forecast 22/1 | 28 £1.88 | 38 £3.32 | 40 £2.77 | 320 £2.16 | 380 £1.53 | 400 £10.01 |
| 13:48 | Market:OPEN Horse:ACTIVE | forecast 22/1 | 65 £1.13 | 70 £1.92 | 75 £6.06 | 85 £5.34 | 95 £2.55 | 100 £11 |
| 13:50 | Market:OPEN Horse:ACTIVE | forecast 22/1 | 70 £2.92 | 75 £7.08 | 80 £5.09 | 85 £4.19 | 95 £2.55 | 100 £11 |
| 13:55 | Market:OPEN Horse:ACTIVE | forecast 22/1 | 70 £2.92 | 75 £8.09 | 80 £6.11 | 85 £4.39 | 95 £2.55 | 100 £11 |
| 14:00 | Market:OPEN Horse:ACTIVE | forecast 22/1 | 80 £4.86 | 85 £3.63 | 90 £19.61 | 95 £1.45 | 100 £11.42 | 110 £4.7 |
| 14:05 | Market:OPEN Horse:ACTIVE | forecast 22/1 | 90 £4.78 | 95 £13.94 | 100 £7.89 | 110 £2.93 | 120 £2.99 | 130 £7.11 |
| 14:10 | Market:OPEN Horse:ACTIVE | forecast 22/1 | 130 £6.25 | 140 £7.32 | 150 £1.26 | 180 £1.71 | 200 £2.53 | 300 £5 |
| 14:13 | Market:OPEN Horse:ACTIVE | forecast 22/1 | 130 £6.25 | 140 £6.85 | 150 £4.07 | 160 £2.89 | 170 £3.37 | 180 £2.76 |
| 14:15 | Market:OPEN Horse:ACTIVE | forecast 22/1 | 160 £4.37 | 170 £1.96 | 180 £2.57 | 210 £2.49 | 220 £2 | 300 £5 |
| 14:18 | Market:OPEN Horse:ACTIVE | forecast 22/1 | 250 £1.41 | 260 £3.83 | 270 £4.71 | 300 £1.71 | 320 £2 | 330 £4.28 |
| 14:20 | Market:SUSPENDED Horse:ACTIVE | forecast 22/1 | 280 £4.21 | 290 £2.76 | 300 £7.3 | 330 £1.01 | 500 £1.06 | 600 £1.01 |
| 14:25 | Market:SUSPENDED Horse:ACTIVE | forecast 22/1 | 0 £0 | 0 £0 | 0 £0 | 0 £0 | 0 £0 | 0 £0 |
| Khepri : LOSER | ||||||||
| Back | Back | Back | Lay | Lay | Lay | |||
| 00:00 | Market:OPEN Horse:ACTIVE | forecast 16/1 | 16.5 £1.36 | 17 £1.47 | 17.5 £1.83 | 23 £1 | 80 £1.3 | 130 £1 |
| 13:48 | Market:OPEN Horse:ACTIVE | forecast 16/1 | 30 £7.95 | 32 £11.44 | 34 £5.89 | 38 £4.32 | 40 £3.7 | 42 £8.65 |
| 13:50 | Market:OPEN Horse:ACTIVE | forecast 16/1 | 30 £7.95 | 32 £9.92 | 34 £10.31 | 38 £2.07 | 40 £3.93 | 42 £9.69 |
| 13:55 | Market:OPEN Horse:ACTIVE | forecast 16/1 | 32 £11.5 | 34 £23.76 | 36 £11.01 | 38 £3.99 | 40 £10.06 | 42 £8.65 |
| 14:00 | Market:OPEN Horse:ACTIVE | forecast 16/1 | 34 £20.27 | 36 £14.58 | 38 £4.88 | 40 £7.95 | 42 £6.86 | 44 £7.83 |
| 14:05 | Market:OPEN Horse:ACTIVE | forecast 16/1 | 32 £14.05 | 34 £23.2 | 36 £16.31 | 40 £8.67 | 42 £18.45 | 44 £13.57 |
| 14:10 | Market:OPEN Horse:ACTIVE | forecast 16/1 | 38 £23.21 | 40 £42.25 | 42 £12.38 | 44 £10.3 | 46 £10.92 | 48 £14.33 |
| 14:13 | Market:OPEN Horse:ACTIVE | forecast 16/1 | 46 £17.24 | 48 £28.54 | 50 £34.54 | 55 £27.26 | 60 £16.31 | 65 £17.83 |
| 14:15 | Market:OPEN Horse:ACTIVE | forecast 16/1 | 48 £17.33 | 50 £83.56 | 55 £34.49 | 60 £8.94 | 65 £22.77 | 70 £15.91 |
| 14:18 | Market:OPEN Horse:ACTIVE | forecast 16/1 | 60 £15.42 | 65 £40.57 | 70 £8.66 | 75 £10.64 | 80 £23.88 | 85 £21.54 |
| 14:20 | Market:SUSPENDED Horse:ACTIVE | forecast 16/1 | 60 £35.64 | 65 £26.93 | 70 £23.25 | 75 £15.79 | 80 £14.69 | 85 £20.58 |
| 14:25 | Market:SUSPENDED Horse:ACTIVE | forecast 16/1 | 0 £0 | 0 £0 | 0 £0 | 0 £0 | 0 £0 | 0 £0 |
| Kinetic Impact : LOSER | ||||||||
| Back | Back | Back | Lay | Lay | Lay | |||
| 00:00 | Market:OPEN Horse:ACTIVE | forecast 4/1 | 2.94 £5 | 2.96 £2.54 | 2.98 £1.56 | 3.4 £40.66 | 4.2 £1.79 | 4.3 £3.64 |
| 13:48 | Market:OPEN Horse:ACTIVE | forecast 4/1 | 3.75 £37.91 | 3.8 £87.79 | 3.85 £19.56 | 3.9 £47.2 | 3.95 £22.2 | 4 £77.27 |
| 13:50 | Market:OPEN Horse:ACTIVE | forecast 4/1 | 3.75 £47.89 | 3.8 £53.05 | 3.85 £42.37 | 3.9 £40.41 | 3.95 £36.26 | 4 £77.27 |
| 13:55 | Market:OPEN Horse:ACTIVE | forecast 4/1 | 3.8 £57.05 | 3.85 £63.19 | 3.9 £49.97 | 3.95 £29.93 | 4 £94.35 | 4.1 £56.87 |
| 14:00 | Market:OPEN Horse:ACTIVE | forecast 4/1 | 3.75 £43.19 | 3.8 £57.29 | 3.85 £61.96 | 3.9 £35.08 | 3.95 £35.36 | 4 £92.07 |
| 14:05 | Market:OPEN Horse:ACTIVE | forecast 4/1 | 3.75 £35.37 | 3.8 £61.3 | 3.85 £19.64 | 3.9 £49 | 3.95 £64.09 | 4 £41.02 |
| 14:10 | Market:OPEN Horse:ACTIVE | forecast 4/1 | 3.7 £366.78 | 3.75 £222.59 | 3.8 £31.55 | 3.85 £238.59 | 3.9 £159.32 | 3.95 £135.12 |
| 14:13 | Market:OPEN Horse:ACTIVE | forecast 4/1 | 3.25 £421.73 | 3.3 £433.19 | 3.35 £360.1 | 3.4 £106.85 | 3.45 £404.37 | 3.5 £223.19 |
| 14:15 | Market:OPEN Horse:ACTIVE | forecast 4/1 | 3.35 £549.09 | 3.4 £311.59 | 3.45 £342.22 | 3.5 £77.41 | 3.55 £168.15 | 3.6 £291.19 |
| 14:18 | Market:OPEN Horse:ACTIVE | forecast 4/1 | 3.65 £477.59 | 3.7 £342.97 | 3.75 £139.09 | 3.8 £176.19 | 3.85 £254.08 | 3.9 £203.64 |
| 14:20 | Market:SUSPENDED Horse:ACTIVE | forecast 4/1 | 3.75 £174.43 | 3.8 £209.83 | 3.85 £66.36 | 3.95 £246.84 | 4 £143.95 | 4.1 £181.34 |
| 14:25 | Market:SUSPENDED Horse:ACTIVE | forecast 4/1 | 0 £0 | 0 £0 | 0 £0 | 0 £0 | 0 £0 | 0 £0 |
| Moon Zabeel : LOSER | ||||||||
| Back | Back | Back | Lay | Lay | Lay | |||
| 00:00 | Market:OPEN Horse:ACTIVE | forecast 25/1 | 19 £2 | 20 £2.24 | 22 £2.27 | 300 £1.64 | 570 £2.25 | 580 £1.28 |
| 13:48 | Market:OPEN Horse:ACTIVE | forecast 25/1 | 34 £3.94 | 36 £15.45 | 38 £4.78 | 40 £3.76 | 42 £3.49 | 44 £4.56 |
| 13:50 | Market:OPEN Horse:ACTIVE | forecast 25/1 | 34 £5.46 | 36 £14.6 | 38 £8.54 | 40 £3.07 | 42 £3.49 | 44 £4.56 |
| 13:55 | Market:OPEN Horse:ACTIVE | forecast 25/1 | 32 £7.31 | 34 £4.86 | 36 £12.11 | 40 £2.75 | 42 £3.49 | 44 £4.56 |
| 14:00 | Market:OPEN Horse:ACTIVE | forecast 25/1 | 34 £6.51 | 36 £10.65 | 38 £6.7 | 40 £2 | 42 £2.41 | 44 £1.28 |
| 14:05 | Market:OPEN Horse:ACTIVE | forecast 25/1 | 34 £9.42 | 36 £12.05 | 38 £6.98 | 40 £1.98 | 42 £7.4 | 44 £7.45 |
| 14:10 | Market:OPEN Horse:ACTIVE | forecast 25/1 | 32 £22.78 | 34 £21.25 | 36 £22.5 | 38 £4.01 | 40 £9 | 42 £12.05 |
| 14:13 | Market:OPEN Horse:ACTIVE | forecast 25/1 | 38 £25.2 | 40 £19.51 | 42 £6.62 | 44 £5.69 | 46 £12.49 | 48 £18.07 |
| 14:15 | Market:OPEN Horse:ACTIVE | forecast 25/1 | 44 £15.59 | 46 £59.99 | 48 £7.83 | 50 £16.18 | 55 £16.27 | 60 £17.43 |
| 14:18 | Market:OPEN Horse:ACTIVE | forecast 25/1 | 32 £20.69 | 34 £26.68 | 36 £23 | 40 £26.67 | 42 £22.35 | 44 £23.35 |
| 14:20 | Market:SUSPENDED Horse:ACTIVE | forecast 25/1 | 38 £16.4 | 40 £3.02 | 46 £3.24 | 48 £3.14 | 50 £6.54 | 55 £23.23 |
| 14:25 | Market:SUSPENDED Horse:ACTIVE | forecast 25/1 | 0 £0 | 0 £0 | 0 £0 | 0 £0 | 0 £0 | 0 £0 |
| Sixty Plus : LOSER | ||||||||
| Back | Back | Back | Lay | Lay | Lay | |||
| 00:00 | Market:OPEN Horse:ACTIVE | forecast 25/1 | 18.5 £2.62 | 19.5 £1.06 | 20 £1.98 | 300 £1.55 | 570 £2.41 | 580 £1.18 |
| 13:48 | Market:OPEN Horse:ACTIVE | forecast 25/1 | 48 £1.85 | 55 £3.25 | 60 £1.15 | 65 £2.36 | 80 £3.48 | 85 £4.84 |
| 13:50 | Market:OPEN Horse:ACTIVE | forecast 25/1 | 48 £1.85 | 55 £4.1 | 60 £2.1 | 70 £1.61 | 80 £3.34 | 85 £4.84 |
| 13:55 | Market:OPEN Horse:ACTIVE | forecast 25/1 | 60 £2.14 | 65 £86.88 | 70 £3.92 | 75 £3.72 | 80 £2.64 | 85 £4.84 |
| 14:00 | Market:OPEN Horse:ACTIVE | forecast 25/1 | 55 £9.48 | 60 £5.6 | 65 £83.82 | 70 £2.02 | 75 £2.7 | 80 £2.64 |
| 14:05 | Market:OPEN Horse:ACTIVE | forecast 25/1 | 55 £8.94 | 60 £5.69 | 65 £77.93 | 70 £21.92 | 75 £19.17 | 80 £5.05 |
| 14:10 | Market:OPEN Horse:ACTIVE | forecast 25/1 | 75 £17.44 | 80 £15.91 | 85 £31.79 | 90 £7.74 | 95 £2.46 | 100 £10.07 |
| 14:13 | Market:OPEN Horse:ACTIVE | forecast 25/1 | 80 £35.3 | 85 £38.07 | 90 £47.57 | 95 £48.13 | 100 £15.42 | 110 £14.32 |
| 14:15 | Market:OPEN Horse:ACTIVE | forecast 25/1 | 90 £61.3 | 95 £24.64 | 100 £12.84 | 120 £10.15 | 130 £26.27 | 140 £5.2 |
| 14:18 | Market:OPEN Horse:ACTIVE | forecast 25/1 | 100 £13.43 | 110 £28.32 | 120 £9.86 | 140 £11.2 | 150 £8.06 | 160 £6.66 |
| 14:20 | Market:SUSPENDED Horse:ACTIVE | forecast 25/1 | 100 £29.18 | 110 £1.82 | 120 £8.87 | 130 £31.49 | 140 £12.28 | 150 £10.5 |
| 14:25 | Market:SUSPENDED Horse:ACTIVE | forecast 25/1 | 0 £0 | 0 £0 | 0 £0 | 0 £0 | 0 £0 | 0 £0 |
| Steel Raven : WINNER | ||||||||
| Back | Back | Back | Lay | Lay | Lay | |||
| 00:00 | Market:OPEN Horse:ACTIVE | forecast 6/1 | 6 £2.23 | 7.8 £2.95 | 8 £2.05 | 13 £2.3 | 14 £1.3 | 17 £1.3 |
| 13:48 | Market:OPEN Horse:ACTIVE | forecast 6/1 | 8.2 £12.76 | 8.4 £27.38 | 8.6 £15.82 | 9 £12.88 | 9.2 £3.68 | 9.4 £9.04 |
| 13:50 | Market:OPEN Horse:ACTIVE | forecast 6/1 | 8.4 £32.38 | 8.6 £11.39 | 8.8 £32.87 | 9 £16.89 | 9.2 £10.02 | 9.4 £8.62 |
| 13:55 | Market:OPEN Horse:ACTIVE | forecast 6/1 | 8.4 £32.4 | 8.6 £20.07 | 8.8 £22.45 | 9.2 £13.39 | 9.4 £11.38 | 9.6 £17.38 |
| 14:00 | Market:OPEN Horse:ACTIVE | forecast 6/1 | 9 £17.81 | 9.2 £41.45 | 9.4 £26.43 | 9.6 £7.93 | 9.8 £23.1 | 10 £14.42 |
| 14:05 | Market:OPEN Horse:ACTIVE | forecast 6/1 | 9.6 £19.27 | 9.8 £33.39 | 10 £2.56 | 10.5 £48.29 | 11 £6.81 | 11.5 £32.37 |
| 14:10 | Market:OPEN Horse:ACTIVE | forecast 6/1 | 8.8 £141.21 | 9 £93.6 | 9.2 £13.5 | 9.4 £39.24 | 9.6 £54.27 | 9.8 £48.9 |
| 14:13 | Market:OPEN Horse:ACTIVE | forecast 6/1 | 9.4 £122.01 | 9.6 £52.63 | 9.8 £32.84 | 10 £54.38 | 10.5 £106.32 | 11 £108.36 |
| 14:15 | Market:OPEN Horse:ACTIVE | forecast 6/1 | 9.8 £63.98 | 10 £177.11 | 10.5 £134.38 | 11 £53.69 | 11.5 £99.43 | 12 £92.63 |
| 14:18 | Market:OPEN Horse:ACTIVE | forecast 6/1 | 10 £155.32 | 10.5 £105.94 | 11 £58.74 | 11.5 £94.24 | 12 £91.92 | 12.5 £131.17 |
| 14:20 | Market:SUSPENDED Horse:ACTIVE | forecast 6/1 | 11 £188.94 | 11.5 £114.38 | 12 £22.03 | 12.5 £5.84 | 13 £93.16 | 13.5 £64.33 |
| 14:25 | Market:SUSPENDED Horse:ACTIVE | forecast 6/1 | 0 £0 | 0 £0 | 0 £0 | 0 £0 | 0 £0 | 0 £0 |
| Talitha Rouge : LOSER | ||||||||
| Back | Back | Back | Lay | Lay | Lay | |||
| 00:00 | Market:OPEN Horse:ACTIVE | forecast 11/2 | 5 £3 | 5.1 £5 | 5.2 £4.69 | 8.4 £1.55 | 9.6 £1.5 | 9.8 £1.3 |
| 13:48 | Market:OPEN Horse:ACTIVE | forecast 11/2 | 6.8 £31.52 | 7 £33.09 | 7.2 £60.6 | 7.4 £38.37 | 7.6 £31.5 | 7.8 £9 |
| 13:50 | Market:OPEN Horse:ACTIVE | forecast 11/2 | 6.8 £36.52 | 7 £33.09 | 7.2 £58.11 | 7.4 £38.98 | 7.6 £34.79 | 7.8 £9 |
| 13:55 | Market:OPEN Horse:ACTIVE | forecast 11/2 | 6.8 £38.7 | 7 £32.75 | 7.2 £51.73 | 7.4 £50.78 | 7.6 £34.79 | 7.8 £9 |
| 14:00 | Market:OPEN Horse:ACTIVE | forecast 11/2 | 6.2 £18.26 | 6.4 £16.86 | 6.6 £56.24 | 6.8 £34.39 | 7 £34.22 | 7.2 £26.79 |
| 14:05 | Market:OPEN Horse:ACTIVE | forecast 11/2 | 6.4 £131.98 | 6.6 £63.81 | 6.8 £74.54 | 7 £88.16 | 7.2 £43.11 | 7.4 £29.12 |
| 14:10 | Market:OPEN Horse:ACTIVE | forecast 11/2 | 6.4 £200.86 | 6.6 £114.99 | 6.8 £160.19 | 7 £68.53 | 7.2 £94.24 | 7.4 £64.22 |
| 14:13 | Market:OPEN Horse:ACTIVE | forecast 11/2 | 6 £174.54 | 6.2 £173.09 | 6.4 £178.29 | 6.6 £69.44 | 6.8 £181.92 | 7 £131.69 |
| 14:15 | Market:OPEN Horse:ACTIVE | forecast 11/2 | 5.8 £158.45 | 5.9 £152.34 | 6 £86.64 | 6.2 £165.14 | 6.4 £266.72 | 6.6 £177.8 |
| 14:18 | Market:OPEN Horse:ACTIVE | forecast 11/2 | 5.9 £177.02 | 6 £336.71 | 6.2 £161.86 | 6.4 £178.3 | 6.6 £333.16 | 6.8 £203.74 |
| 14:20 | Market:SUSPENDED Horse:ACTIVE | forecast 11/2 | 5.8 £139.98 | 5.9 £205.51 | 6 £130.47 | 6.2 £60.15 | 6.4 £119.31 | 6.6 £127.61 |
| 14:25 | Market:SUSPENDED Horse:ACTIVE | forecast 11/2 | 0 £0 | 0 £0 | 0 £0 | 0 £0 | 0 £0 | 0 £0 |
| Tiernan : LOSER | ||||||||
| Back | Back | Back | Lay | Lay | Lay | |||
| 00:00 | Market:OPEN Horse:ACTIVE | forecast 2/1 | 3.6 £4.62 | 3.7 £5 | 3.75 £4.85 | 4.1 £1.41 | 4.4 £3.53 | 4.5 £7.15 |
| 13:48 | Market:OPEN Horse:ACTIVE | forecast 2/1 | 2.54 £48.38 | 2.56 £13.23 | 2.58 £51.09 | 2.62 £20.89 | 2.64 £47.25 | 2.66 £37.76 |
| 13:50 | Market:OPEN Horse:ACTIVE | forecast 2/1 | 2.56 £13.23 | 2.58 £89.81 | 2.6 £5.77 | 2.62 £21.92 | 2.64 £60.93 | 2.66 £37.76 |
| 13:55 | Market:OPEN Horse:ACTIVE | forecast 2/1 | 2.5 £23.68 | 2.52 £79.31 | 2.54 £111.73 | 2.56 £12.5 | 2.58 £53.01 | 2.6 £41.77 |
| 14:00 | Market:OPEN Horse:ACTIVE | forecast 2/1 | 2.52 £84.87 | 2.54 £51.91 | 2.56 £149.16 | 2.58 £2.48 | 2.6 £20.44 | 2.62 £175.09 |
| 14:05 | Market:OPEN Horse:ACTIVE | forecast 2/1 | 2.48 £42.11 | 2.5 £67.65 | 2.52 £102.72 | 2.56 £50.62 | 2.58 £100.04 | 2.6 £47.67 |
| 14:10 | Market:OPEN Horse:ACTIVE | forecast 2/1 | 2.48 £239.76 | 2.5 £561.07 | 2.52 £41.76 | 2.54 £356.46 | 2.56 £608.28 | 2.58 £194.92 |
| 14:13 | Market:OPEN Horse:ACTIVE | forecast 2/1 | 2.64 £287.23 | 2.66 £373.13 | 2.68 £99.9 | 2.7 £37.57 | 2.72 £322.33 | 2.74 £274.15 |
| 14:15 | Market:OPEN Horse:ACTIVE | forecast 2/1 | 2.56 £307.27 | 2.58 £319.1 | 2.6 £13.7 | 2.62 £414.39 | 2.64 £295.24 | 2.66 £314.61 |
| 14:18 | Market:OPEN Horse:ACTIVE | forecast 2/1 | 2.4 £510.68 | 2.42 £567.7 | 2.44 £133.25 | 2.46 £195.26 | 2.48 £335.7 | 2.5 £248.09 |
| 14:20 | Market:SUSPENDED Horse:ACTIVE | forecast 2/1 | 2.26 £263.39 | 2.28 £306.53 | 2.3 £854.33 | 2.32 £375.74 | 2.34 £173.61 | 2.36 £185.22 |
| 14:25 | Market:SUSPENDED Horse:ACTIVE | forecast 2/1 | 0 £0 | 0 £0 | 0 £0 | 0 £0 | 0 £0 | 0 £0 |
| Twin And Tonic : LOSER | ||||||||
| Back | Back | Back | Lay | Lay | Lay | |||
| 00:00 | Market:OPEN Horse:ACTIVE | forecast 200/1 | 85 £2.35 | 110 £2.71 | 400 £4.44 | 0 £0 | 0 £0 | 0 £0 |
| 13:48 | Market:OPEN Horse:ACTIVE | forecast 200/1 | 400 £4.28 | 610 £8.41 | 1000 £115.89 | 0 £0 | 0 £0 | 0 £0 |
| 13:50 | Market:OPEN Horse:ACTIVE | forecast 200/1 | 400 £4.28 | 610 £8.41 | 1000 £116.04 | 0 £0 | 0 £0 | 0 £0 |
| 13:55 | Market:OPEN Horse:ACTIVE | forecast 200/1 | 400 £4.28 | 610 £8.41 | 1000 £104.22 | 0 £0 | 0 £0 | 0 £0 |
| 14:00 | Market:OPEN Horse:ACTIVE | forecast 200/1 | 400 £4.28 | 610 £8.41 | 1000 £99.29 | 0 £0 | 0 £0 | 0 £0 |
| 14:05 | Market:OPEN Horse:ACTIVE | forecast 200/1 | 400 £4.28 | 610 £8.41 | 1000 £97.29 | 0 £0 | 0 £0 | 0 £0 |
| 14:10 | Market:OPEN Horse:ACTIVE | forecast 200/1 | 610 £7.5 | 690 £2.91 | 1000 £90.51 | 0 £0 | 0 £0 | 0 £0 |
| 14:13 | Market:OPEN Horse:ACTIVE | forecast 200/1 | 610 £7.9 | 720 £2.51 | 1000 £75.84 | 0 £0 | 0 £0 | 0 £0 |
| 14:15 | Market:OPEN Horse:ACTIVE | forecast 200/1 | 610 £7.9 | 720 £2.56 | 1000 £69.81 | 0 £0 | 0 £0 | 0 £0 |
| 14:18 | Market:OPEN Horse:ACTIVE | forecast 200/1 | 610 £7.95 | 710 £2.6 | 1000 £56.66 | 0 £0 | 0 £0 | 0 £0 |
| 14:20 | Market:SUSPENDED Horse:ACTIVE | forecast 200/1 | 690 £1.22 | 990 £2.55 | 1000 £48.47 | 0 £0 | 0 £0 | 0 £0 |
| 14:25 | Market:SUSPENDED Horse:ACTIVE | forecast 200/1 | 0 £0 | 0 £0 | 0 £0 | 0 £0 | 0 £0 | 0 £0 |